createdAt,value
2022-12-25T00:01:19.859Z,8.75
2022-12-25T00:04:06.837Z,8.74
2022-12-25T00:06:53.710Z,8.75
2022-12-25T00:09:40.473Z,8.72
2022-12-25T00:12:27.339Z,8.72
2022-12-25T00:15:14.093Z,8.70
2022-12-25T00:18:00.858Z,8.69
2022-12-25T00:21:02.601Z,8.68
2022-12-25T00:23:57.381Z,8.67
2022-12-25T00:26:44.208Z,8.66
2022-12-25T00:29:32.657Z,8.63
2022-12-25T00:32:19.502Z,8.65
2022-12-25T00:35:06.631Z,8.61
2022-12-25T00:37:53.394Z,8.62
2022-12-25T00:40:44.005Z,8.61
2022-12-25T00:43:30.853Z,8.61
2022-12-25T00:46:17.798Z,8.60
2022-12-25T00:49:04.871Z,8.58
2022-12-25T00:51:51.978Z,8.57
2022-12-25T00:54:38.874Z,8.55
2022-12-25T00:57:25.696Z,8.55
2022-12-25T01:00:13.118Z,8.54
2022-12-25T01:03:00.040Z,8.55
2022-12-25T01:05:58.541Z,8.53
2022-12-25T01:09:03.699Z,8.51
2022-12-25T01:11:50.528Z,8.48
2022-12-25T01:14:37.307Z,8.49
2022-12-25T01:17:24.402Z,8.48
2022-12-25T01:20:13.191Z,8.50
2022-12-25T01:22:59.975Z,8.48
2022-12-25T01:25:48.587Z,8.47
2022-12-25T01:28:36.012Z,8.46
2022-12-25T01:31:24.303Z,8.46
2022-12-25T01:34:11.193Z,8.44
2022-12-25T01:36:58.080Z,8.44
2022-12-25T01:39:44.887Z,8.41
2022-12-25T01:42:34.564Z,8.40
2022-12-25T01:45:39.014Z,8.38
2022-12-25T01:48:28.912Z,8.38
2022-12-25T01:51:43.702Z,8.38
2022-12-25T01:54:34.186Z,8.36
2022-12-25T01:57:27.577Z,8.36
2022-12-25T02:00:16.269Z,8.35
2022-12-25T02:03:03.590Z,8.34
2022-12-25T02:05:50.971Z,8.32
2022-12-25T02:08:38.015Z,8.31
2022-12-25T02:11:43.572Z,8.29
2022-12-25T02:14:32.768Z,8.27
2022-12-25T02:17:28.849Z,8.29
2022-12-25T02:20:47.243Z,8.25
2022-12-25T02:24:05.122Z,8.24
2022-12-25T02:26:54.796Z,8.22
2022-12-25T02:29:52.295Z,8.20
2022-12-25T02:32:49.712Z,8.19
2022-12-25T02:35:36.769Z,8.18
2022-12-25T02:39:00.797Z,8.17
2022-12-25T02:41:49.054Z,8.15
2022-12-25T02:44:57.540Z,8.16
2022-12-25T02:48:03.020Z,8.13
2022-12-25T02:51:08.891Z,8.11
2022-12-25T02:54:15.550Z,8.10
2022-12-25T02:57:25.006Z,8.09
2022-12-25T03:00:30.921Z,8.08
2022-12-25T03:03:36.931Z,8.07
2022-12-25T03:06:44.259Z,8.05
2022-12-25T03:09:54.306Z,8.05
2022-12-25T03:12:50.049Z,8.03
2022-12-25T03:16:01.540Z,8.01
2022-12-25T03:18:48.311Z,8.01
2022-12-25T03:21:58.189Z,7.99
2022-12-25T03:25:03.556Z,7.98
2022-12-25T03:27:51.742Z,7.94
2022-12-25T03:31:02.055Z,7.95
2022-12-25T03:34:23.560Z,7.93
2022-12-25T03:37:32.035Z,7.93
2022-12-25T03:40:47.634Z,7.91
2022-12-25T03:43:59.658Z,7.89
2022-12-25T03:47:09.847Z,7.86
2022-12-25T03:50:39.733Z,7.86
2022-12-25T03:53:48.318Z,7.83
2022-12-25T03:56:54.322Z,7.81
2022-12-25T03:59:59.807Z,7.81
2022-12-25T04:03:05.214Z,7.79
2022-12-25T04:06:10.316Z,7.75
2022-12-25T04:09:15.687Z,7.75
2022-12-25T04:12:21.068Z,7.75
2022-12-25T04:15:30.202Z,7.72
2022-12-25T04:18:35.546Z,7.72
2022-12-25T04:21:40.797Z,7.70
2022-12-25T04:24:46.295Z,7.69
2022-12-25T04:27:52.003Z,7.67
2022-12-25T04:30:57.564Z,7.66
2022-12-25T04:34:23.019Z,7.63
2022-12-25T04:37:09.881Z,7.63
2022-12-25T04:39:56.670Z,7.63
2022-12-25T04:42:43.598Z,7.61
2022-12-25T04:45:30.507Z,7.57
2022-12-25T04:48:17.364Z,7.58
2022-12-25T04:51:24.781Z,7.55
2022-12-25T04:54:11.599Z,7.57
2022-12-25T04:56:58.438Z,7.56
2022-12-25T04:59:47.312Z,7.55
2022-12-25T05:02:34.378Z,7.52
2022-12-25T05:05:21.299Z,7.53
2022-12-25T05:08:08.426Z,7.51
2022-12-25T05:10:55.216Z,7.51
2022-12-25T05:13:42.256Z,7.49
2022-12-25T05:16:29.337Z,7.49
2022-12-25T05:19:19.345Z,7.48
2022-12-25T05:22:08.413Z,7.44
2022-12-25T05:24:55.230Z,7.43
2022-12-25T05:27:42.019Z,7.41
2022-12-25T05:30:28.808Z,7.41
2022-12-25T05:33:15.669Z,7.39
2022-12-25T05:36:07.163Z,7.38
2022-12-25T05:38:53.934Z,7.36
2022-12-25T05:41:40.744Z,7.34
2022-12-25T05:44:28.465Z,7.35
2022-12-25T05:47:15.373Z,7.34
2022-12-25T05:50:02.645Z,7.33
2022-12-25T05:52:49.524Z,7.32
2022-12-25T05:55:37.954Z,7.30
2022-12-25T05:58:24.776Z,7.24
2022-12-25T06:01:20.072Z,7.28
2022-12-25T06:04:12.162Z,7.26
2022-12-25T06:06:59.593Z,7.24
2022-12-25T06:09:46.516Z,7.23
2022-12-25T06:12:33.359Z,7.24
2022-12-25T06:15:20.246Z,7.21
2022-12-25T06:18:07.253Z,7.20
2022-12-25T06:20:56.873Z,7.17
2022-12-25T06:23:44.424Z,7.18
2022-12-25T06:26:31.282Z,7.18
2022-12-25T06:29:18.128Z,7.17
2022-12-25T06:32:05.048Z,7.15
2022-12-25T06:34:52.005Z,7.14
2022-12-25T06:37:38.886Z,7.13
2022-12-25T06:40:25.692Z,7.13
2022-12-25T06:43:12.482Z,7.11
2022-12-25T06:46:07.327Z,7.10
2022-12-25T06:48:54.420Z,7.08
2022-12-25T06:51:44.346Z,7.08
2022-12-25T06:54:31.141Z,7.04
2022-12-25T06:57:18.950Z,7.09
2022-12-25T07:00:06.734Z,7.06
2022-12-25T07:02:53.606Z,7.08
2022-12-25T07:05:40.548Z,7.05
2022-12-25T07:08:27.584Z,7.06
2022-12-25T07:11:16.441Z,7.05
2022-12-25T07:14:03.358Z,7.04
2022-12-25T07:16:53.349Z,7.04
2022-12-25T07:19:45.185Z,7.02
2022-12-25T07:22:32.481Z,7.04
2022-12-25T07:25:19.282Z,7.04
2022-12-25T07:28:06.143Z,7.02
2022-12-25T07:30:53.385Z,7.01
2022-12-25T07:33:42.841Z,7.02
2022-12-25T07:36:30.562Z,7.01
2022-12-25T07:39:17.477Z,6.99
2022-12-25T07:42:04.322Z,6.98
2022-12-25T07:44:51.216Z,7.01
2022-12-25T07:47:38.032Z,6.98
2022-12-25T07:50:24.895Z,6.98
2022-12-25T07:53:11.683Z,7.00
2022-12-25T07:56:06.148Z,7.00
2022-12-25T07:58:58.461Z,6.99
2022-12-25T08:01:45.468Z,6.98
2022-12-25T08:04:32.386Z,6.99
2022-12-25T08:07:19.171Z,6.98
2022-12-25T08:10:09.258Z,6.96
2022-12-25T08:12:56.425Z,6.99
2022-12-25T08:15:43.264Z,6.96
2022-12-25T08:18:33.308Z,6.99
2022-12-25T08:21:20.156Z,6.97
2022-12-25T08:24:07.090Z,6.98
2022-12-25T08:26:53.914Z,6.98
2022-12-25T08:29:40.931Z,6.99
2022-12-25T08:32:27.680Z,6.99
2022-12-25T08:35:14.615Z,6.98
2022-12-25T08:38:01.749Z,6.98
2022-12-25T08:40:48.507Z,6.99
2022-12-25T08:43:35.287Z,6.98
2022-12-25T08:46:22.162Z,6.98
2022-12-25T08:49:09.225Z,6.99
2022-12-25T08:51:56.080Z,7.00
2022-12-25T08:54:42.894Z,7.02
2022-12-25T08:57:29.714Z,7.01
2022-12-25T09:00:16.837Z,7.02
2022-12-25T09:03:04.092Z,7.04
2022-12-25T09:05:51.752Z,7.03
2022-12-25T09:08:48.510Z,7.05
2022-12-25T09:11:36.222Z,7.06
2022-12-25T09:14:25.352Z,7.04
2022-12-25T09:17:12.147Z,7.06
2022-12-25T09:19:59.374Z,7.06
2022-12-25T09:22:46.256Z,7.07
2022-12-25T09:25:33.043Z,7.12
2022-12-25T09:28:21.107Z,7.13
2022-12-25T09:31:09.958Z,7.13
2022-12-25T09:34:00.633Z,7.15
2022-12-25T09:36:47.414Z,7.12
2022-12-25T09:39:38.187Z,7.11
2022-12-25T09:42:31.216Z,7.15
2022-12-25T09:45:39.774Z,7.16
2022-12-25T09:48:30.994Z,7.16
2022-12-25T09:51:18.531Z,7.16
2022-12-25T09:54:12.730Z,7.15
2022-12-25T09:57:00.683Z,7.16
2022-12-25T09:59:52.434Z,7.17
2022-12-25T10:03:10.030Z,7.23
2022-12-25T10:06:21.009Z,7.24
2022-12-25T10:09:23.038Z,7.28
2022-12-25T10:12:47.531Z,7.31
2022-12-25T10:15:45.551Z,7.29
2022-12-25T10:19:10.235Z,7.35
2022-12-25T10:22:02.274Z,7.36
2022-12-25T10:24:51.170Z,7.37
2022-12-25T10:28:00.772Z,7.38
2022-12-25T10:30:48.905Z,7.41
2022-12-25T10:33:35.713Z,7.43
2022-12-25T10:36:25.223Z,7.45
2022-12-25T10:39:26.552Z,7.46
2022-12-25T10:42:43.199Z,7.49
2022-12-25T10:45:30.408Z,7.48
2022-12-25T10:48:27.178Z,7.50
2022-12-25T10:51:14.686Z,7.54
2022-12-25T10:54:23.392Z,7.55
2022-12-25T10:57:12.622Z,7.57
2022-12-25T11:00:00.437Z,7.56
2022-12-25T11:02:47.509Z,7.57
2022-12-25T11:05:36.827Z,7.57
2022-12-25T11:08:48.446Z,7.59
2022-12-25T11:11:38.159Z,7.59
2022-12-25T11:14:25.478Z,7.62
2022-12-25T11:17:25.057Z,7.66
2022-12-25T11:20:19.694Z,7.69
2022-12-25T11:23:12.805Z,7.72
2022-12-25T11:26:02.083Z,7.75
2022-12-25T11:28:53.008Z,7.79
2022-12-25T11:31:59.669Z,7.80
2022-12-25T11:34:49.612Z,7.84
2022-12-25T11:37:54.713Z,7.82
2022-12-25T11:40:47.980Z,7.89
2022-12-25T11:43:56.468Z,7.91
2022-12-25T11:46:46.040Z,7.94
2022-12-25T11:49:50.967Z,7.95
2022-12-25T11:52:43.797Z,8.00
2022-12-25T11:55:54.860Z,8.05
2022-12-25T11:58:52.636Z,8.02
2022-12-25T12:01:54.816Z,8.10
2022-12-25T12:04:50.217Z,8.10
2022-12-25T12:07:43.478Z,8.12
2022-12-25T12:10:53.029Z,8.16
2022-12-25T12:14:09.254Z,8.18
2022-12-25T12:16:56.252Z,8.22
2022-12-25T12:19:46.283Z,8.24
2022-12-25T12:22:34.636Z,8.24
2022-12-25T12:25:37.961Z,8.23
2022-12-25T12:28:27.494Z,8.33
2022-12-25T12:31:18.949Z,8.36
2022-12-25T12:34:06.320Z,8.38
2022-12-25T12:37:04.098Z,8.40
2022-12-25T12:39:55.126Z,8.44
2022-12-25T12:42:50.710Z,8.42
2022-12-25T12:45:39.322Z,8.48
2022-12-25T12:48:30.493Z,8.52
2022-12-25T12:51:30.101Z,8.55
2022-12-25T12:54:25.628Z,8.53
2022-12-25T12:57:25.294Z,8.52
2022-12-25T13:00:15.991Z,8.60
2022-12-25T13:03:15.708Z,8.61
2022-12-25T13:06:11.675Z,8.62
2022-12-25T13:09:16.358Z,8.64
2022-12-25T13:12:08.184Z,8.63
2022-12-25T13:14:55.231Z,8.64
2022-12-25T13:17:46.379Z,8.66
2022-12-25T13:21:06.046Z,8.69
2022-12-25T13:24:09.029Z,8.68
2022-12-25T13:27:01.875Z,8.69
2022-12-25T13:29:48.778Z,8.73
2022-12-25T13:35:50.803Z,8.73
2022-12-25T13:38:46.518Z,8.70
2022-12-25T13:42:03.944Z,8.73
2022-12-25T13:44:56.104Z,8.79
2022-12-25T13:47:43.422Z,8.79
2022-12-25T13:50:32.480Z,8.81
2022-12-25T13:53:19.335Z,8.82
2022-12-25T13:56:06.181Z,8.83
2022-12-25T13:58:53.040Z,8.84
2022-12-25T14:01:43.119Z,8.87
2022-12-25T14:04:30.164Z,8.87
2022-12-25T14:07:24.114Z,8.87
2022-12-25T14:10:12.538Z,8.89
2022-12-25T14:13:04.212Z,8.87
2022-12-25T14:15:53.802Z,8.88
2022-12-25T14:19:00.406Z,8.91
2022-12-25T14:21:57.647Z,8.89
2022-12-25T14:24:48.491Z,8.92
2022-12-25T14:27:36.403Z,8.93
2022-12-25T14:30:25.084Z,8.95
2022-12-25T14:33:21.086Z,8.94
2022-12-25T14:36:18.645Z,8.97
2022-12-25T14:39:07.500Z,8.98
2022-12-25T14:41:54.546Z,8.96
2022-12-25T14:44:41.563Z,9.00
2022-12-25T14:47:34.095Z,9.01
2022-12-25T14:50:36.355Z,9.01
2022-12-25T14:53:30.229Z,8.95
2022-12-25T14:56:21.434Z,8.95
2022-12-25T14:59:20.171Z,8.99
2022-12-25T15:02:18.715Z,8.98
2022-12-25T15:05:33.979Z,9.02
2022-12-25T15:08:22.217Z,9.01
2022-12-25T15:11:09.140Z,9.00
2022-12-25T15:13:56.589Z,9.03
2022-12-25T15:16:51.798Z,9.02
2022-12-25T15:19:39.161Z,9.01
2022-12-25T15:22:37.449Z,8.99
2022-12-25T15:25:36.756Z,9.02
2022-12-25T15:28:30.960Z,9.03
2022-12-25T15:31:29.474Z,8.98
2022-12-25T15:34:20.346Z,9.04
2022-12-25T15:37:07.215Z,9.03
2022-12-25T15:39:59.538Z,9.00
2022-12-25T15:42:50.897Z,8.98
2022-12-25T15:45:38.254Z,9.04
2022-12-25T15:48:26.618Z,9.01
2022-12-25T15:51:13.450Z,9.01
2022-12-25T15:54:00.269Z,9.00
2022-12-25T15:56:49.736Z,9.01
2022-12-25T15:59:36.534Z,9.00
2022-12-25T16:02:23.473Z,9.01
2022-12-25T16:05:12.810Z,9.00
2022-12-25T16:07:59.597Z,9.01
2022-12-25T16:10:46.722Z,8.96
2022-12-25T16:13:33.789Z,8.97
2022-12-25T16:16:20.654Z,8.99
2022-12-25T16:19:07.575Z,8.99
2022-12-25T16:21:54.465Z,8.99
2022-12-25T16:24:42.151Z,8.98
2022-12-25T16:27:28.916Z,8.98
2022-12-25T16:30:17.585Z,8.99
2022-12-25T16:33:05.004Z,8.98
2022-12-25T16:35:55.062Z,8.96
2022-12-25T16:38:42.200Z,8.96
2022-12-25T16:41:32.305Z,8.97
2022-12-25T16:44:19.210Z,8.95
2022-12-25T16:47:06.397Z,8.97
2022-12-25T16:49:56.168Z,8.95
2022-12-25T16:52:42.979Z,8.93
2022-12-25T16:55:30.454Z,8.92
2022-12-25T16:58:20.475Z,8.93
2022-12-25T17:01:08.847Z,8.92
2022-12-25T17:03:58.895Z,8.90
2022-12-25T17:06:45.709Z,8.89
2022-12-25T17:09:32.480Z,8.90
2022-12-25T17:12:19.260Z,8.89
2022-12-25T17:15:07.860Z,8.90
2022-12-25T17:17:54.636Z,8.89
2022-12-25T17:20:49.853Z,8.87
2022-12-25T17:23:38.156Z,8.86
2022-12-25T17:26:25.111Z,8.85
2022-12-25T17:29:14.768Z,8.85
2022-12-25T17:32:06.671Z,8.84
2022-12-25T17:34:53.695Z,8.83
2022-12-25T17:37:42.005Z,8.83
2022-12-25T17:40:32.093Z,8.83
2022-12-25T17:43:20.964Z,8.81
2022-12-25T17:46:08.824Z,8.80
2022-12-25T17:48:57.046Z,8.77
2022-12-25T17:51:46.728Z,8.76
2022-12-25T17:54:42.706Z,8.75
2022-12-25T17:57:36.759Z,8.71
2022-12-25T18:00:26.639Z,8.72
2022-12-25T18:03:13.924Z,8.70
2022-12-25T18:06:07.951Z,8.68
2022-12-25T18:08:56.233Z,8.73
2022-12-25T18:11:49.371Z,8.73
2022-12-25T18:14:40.061Z,8.73
2022-12-25T18:17:35.613Z,8.73
2022-12-25T18:20:27.474Z,8.64
2022-12-25T18:23:16.701Z,8.71
2022-12-25T18:26:11.888Z,8.70
2022-12-25T18:29:07.549Z,8.68
2022-12-25T18:32:00.277Z,8.62
2022-12-25T18:34:54.543Z,8.62
2022-12-25T18:37:41.423Z,8.62
2022-12-25T18:40:28.337Z,8.63
2022-12-25T18:43:21.098Z,8.62
2022-12-25T18:46:28.170Z,8.61
2022-12-25T18:49:15.390Z,8.65
2022-12-25T18:52:48.670Z,8.61
2022-12-25T18:55:10.391Z,8.64
2022-12-25T18:58:05.049Z,8.61
2022-12-25T19:00:55.017Z,8.55
2022-12-25T19:03:46.558Z,8.62
2022-12-25T19:06:33.763Z,8.59
2022-12-25T19:09:28.321Z,8.60
2022-12-25T19:12:22.504Z,8.60
2022-12-25T19:15:12.298Z,8.55
2022-12-25T19:18:04.557Z,8.54
2022-12-25T19:20:54.516Z,8.52
2022-12-25T19:23:44.612Z,8.53
2022-12-25T19:26:31.412Z,8.49
2022-12-25T19:29:23.415Z,8.47
2022-12-25T19:32:10.360Z,8.51
2022-12-25T19:35:04.397Z,8.51
2022-12-25T19:37:53.534Z,8.45
2022-12-25T19:40:42.613Z,8.50
2022-12-25T19:43:30.914Z,8.47
2022-12-25T19:46:22.253Z,8.42
2022-12-25T19:49:13.593Z,8.37
2022-12-25T19:52:01.941Z,8.40
2022-12-25T19:54:53.345Z,8.38
2022-12-25T19:57:45.671Z,8.41
2022-12-25T20:00:35.319Z,8.39
2022-12-25T20:03:24.469Z,8.40
2022-12-25T20:06:14.758Z,8.40
2022-12-25T20:09:07.126Z,8.33
2022-12-25T20:12:04.282Z,8.34
2022-12-25T20:14:59.390Z,8.30
2022-12-25T20:17:49.745Z,8.29
2022-12-25T20:20:36.673Z,8.33
2022-12-25T20:23:23.456Z,8.27
2022-12-25T20:26:14.766Z,8.29
2022-12-25T20:29:01.685Z,8.25
2022-12-25T20:31:57.811Z,8.26
2022-12-25T20:34:45.071Z,8.23
2022-12-25T20:37:32.401Z,8.21
2022-12-25T20:40:19.318Z,8.23
2022-12-25T20:43:06.306Z,8.25
2022-12-25T20:45:53.335Z,8.23
2022-12-25T20:48:40.383Z,8.22
2022-12-25T20:51:27.499Z,8.20
2022-12-25T20:54:15.023Z,8.20
2022-12-25T20:57:02.094Z,8.19
2022-12-25T20:59:49.145Z,8.21
2022-12-25T21:02:37.294Z,8.20
2022-12-25T21:05:24.296Z,8.19
2022-12-25T21:08:11.057Z,8.18
2022-12-25T21:11:02.581Z,8.17
2022-12-25T21:13:49.783Z,8.15
2022-12-25T21:16:38.211Z,8.14
2022-12-25T21:19:30.491Z,8.12
2022-12-25T21:22:17.392Z,8.13
2022-12-25T21:25:04.426Z,8.07
2022-12-25T21:27:54.254Z,8.08
2022-12-25T21:30:41.466Z,8.08
2022-12-25T21:36:57.075Z,8.02
2022-12-25T21:39:43.855Z,8.06
2022-12-25T21:42:30.741Z,8.05
2022-12-25T21:45:19.904Z,8.03
2022-12-25T21:48:06.548Z,8.03
2022-12-25T21:51:11.952Z,8.00
2022-12-25T21:53:59.417Z,7.97
2022-12-25T21:56:47.971Z,7.98
2022-12-25T21:59:34.829Z,7.96
2022-12-25T22:02:24.863Z,7.94
2022-12-25T22:05:31.825Z,7.93
2022-12-25T22:08:27.650Z,7.94
2022-12-25T22:11:33.197Z,7.90
2022-12-25T22:14:52.443Z,7.89
2022-12-25T22:18:01.397Z,7.90
2022-12-25T22:20:48.238Z,7.85
2022-12-25T22:23:35.011Z,7.86
2022-12-25T22:26:21.876Z,7.86
2022-12-25T22:29:08.700Z,7.86
2022-12-25T22:31:55.542Z,7.83
2022-12-25T22:34:42.673Z,7.79
2022-12-25T22:37:29.506Z,7.83
2022-12-25T22:40:20.383Z,7.82
2022-12-25T22:43:07.166Z,7.79
2022-12-25T22:46:00.011Z,7.77
2022-12-25T22:48:46.940Z,7.70
2022-12-25T22:51:34.043Z,7.76
2022-12-25T22:54:23.760Z,7.76
2022-12-25T22:57:10.704Z,7.73
2022-12-25T22:59:57.547Z,7.74
2022-12-25T23:02:46.777Z,7.72
2022-12-25T23:05:33.823Z,7.71
2022-12-25T23:08:20.927Z,7.71
2022-12-25T23:11:07.826Z,7.68
2022-12-25T23:14:13.300Z,7.69
2022-12-25T23:17:00.080Z,7.66
2022-12-25T23:20:05.681Z,7.65
2022-12-25T23:23:11.219Z,7.62
2022-12-25T23:26:10.392Z,7.60
2022-12-25T23:29:15.976Z,7.61
2022-12-25T23:32:11.317Z,7.58
2022-12-25T23:34:58.199Z,7.57
2022-12-25T23:37:45.180Z,7.56
2022-12-25T23:40:31.959Z,7.54
2022-12-25T23:43:18.808Z,7.50
2022-12-25T23:46:08.182Z,7.52
2022-12-25T23:48:55.227Z,7.47
2022-12-25T23:51:44.098Z,7.41
2022-12-25T23:54:31.973Z,7.41
2022-12-25T23:57:18.924Z,7.45
